Time;durP1;ratioP1;P1;durP2;ratioP2;P2;SDS_P1;SDS_P2;PMS_P1;PMS_P2;Temp;Humidity;BMP_temperature;BMP_pressure;BME280_temperature;BME280_humidity;BME280_pressure;Samples;Min_cycle;Max_cycle;Signal;HPM_P1;HPM_P2
2023/12/10 00:01:34;;;;;;;1999.90;999.90;;;8.70;99.90;;;;;;4992994;28;20034;-71
2023/12/10 00:04:00;;;;;;;1999.90;999.90;;;8.70;99.90;;;;;;4991623;28;20421;-71
2023/12/10 00:06:26;;;;;;;1999.90;999.90;;;8.70;99.90;;;;;;4988228;28;20031;-71
2023/12/10 00:08:51;;;;;;;1999.90;999.90;;;8.70;99.90;;;;;;5007824;28;20481;-71
2023/12/10 00:11:17;;;;;;;1999.90;999.90;;;8.70;99.90;;;;;;4995237;28;20031;-71
2023/12/10 00:13:43;;;;;;;1999.90;999.90;;;8.70;99.90;;;;;;4992736;28;20117;-71
2023/12/10 00:16:09;;;;;;;1999.90;999.90;;;8.70;99.90;;;;;;4991649;28;20034;-71
2023/12/10 00:18:34;;;;;;;1999.90;999.90;;;8.70;99.90;;;;;;4992616;28;20022;-71
2023/12/10 00:21:00;;;;;;;1999.90;999.90;;;8.70;99.90;;;;;;4975102;28;20038;-70
2023/12/10 00:23:26;;;;;;;1999.90;999.90;;;8.60;99.90;;;;;;4991065;28;20121;-71
2023/12/10 00:25:52;;;;;;;1999.90;999.90;;;8.60;99.90;;;;;;4998656;28;20425;-71
2023/12/10 00:28:18;;;;;;;1999.90;999.90;;;8.70;99.90;;;;;;4991722;28;20087;-71
2023/12/10 00:30:45;;;;;;;1999.90;999.90;;;8.60;99.90;;;;;;4993255;28;20034;-71
2023/12/10 00:33:12;;;;;;;1999.90;999.90;;;8.60;99.90;;;;;;4991774;28;20106;-71
2023/12/10 00:35:37;;;;;;;1999.90;999.90;;;8.60;99.90;;;;;;4992175;28;20037;-71
2023/12/10 00:38:03;;;;;;;1999.90;999.90;;;8.60;99.90;;;;;;4992478;28;20034;-71
2023/12/10 00:40:29;;;;;;;1999.90;999.90;;;8.60;99.90;;;;;;4998989;28;20116;-71
2023/12/10 00:42:57;;;;;;;1999.90;999.90;;;8.60;99.90;;;;;;4998358;28;20041;-71
2023/12/10 00:45:23;;;;;;;1999.90;999.90;;;8.60;99.90;;;;;;4989580;28;20026;-71
2023/12/10 00:47:48;;;;;;;1999.90;999.90;;;8.60;99.90;;;;;;4992122;28;20053;-71
2023/12/10 00:50:14;;;;;;;1999.90;999.90;;;8.60;99.90;;;;;;4993183;28;20026;-71
2023/12/10 00:52:40;;;;;;;1999.90;999.90;;;8.60;99.90;;;;;;4992003;28;20034;-71
2023/12/10 00:55:06;;;;;;;1999.90;999.90;;;8.60;99.90;;;;;;4991992;28;20033;-71
2023/12/10 00:57:33;;;;;;;1999.90;999.90;;;8.60;99.90;;;;;;5009294;28;20457;-71
2023/12/10 00:59:59;;;;;;;1999.90;999.90;;;8.60;99.90;;;;;;4995091;28;20639;-71
2023/12/10 01:02:25;;;;;;;1999.90;999.90;;;8.50;99.90;;;;;;4993068;28;20018;-71
2023/12/10 01:04:51;;;;;;;1999.90;999.90;;;8.50;99.90;;;;;;4991821;28;20363;-71
2023/12/10 01:07:17;;;;;;;1999.90;999.90;;;8.50;99.90;;;;;;4981960;28;20050;-71
2023/12/10 01:09:43;;;;;;;1999.90;999.90;;;8.50;99.90;;;;;;4992891;28;20077;-71
2023/12/10 01:12:09;;;;;;;1999.90;999.90;;;8.50;99.90;;;;;;5015751;28;20032;-71
2023/12/10 01:14:35;;;;;;;1999.90;999.90;;;8.50;99.90;;;;;;5011525;28;20045;-71
2023/12/10 01:17:01;;;;;;;1999.90;999.90;;;8.50;99.90;;;;;;4974379;28;20360;-71
2023/12/10 01:19:27;;;;;;;1999.90;999.90;;;8.50;99.90;;;;;;4978051;28;20030;-71
2023/12/10 01:21:53;;;;;;;1999.90;999.90;;;8.60;99.90;;;;;;4999518;28;20133;-71
2023/12/10 01:24:20;;;;;;;1999.90;999.90;;;8.60;99.90;;;;;;4991364;28;20039;-71
2023/12/10 01:26:46;;;;;;;;;;;8.60;99.90;;;;;;4991030;28;20074;-71
2023/12/10 01:29:12;;;;;;;1999.90;999.90;;;8.70;99.90;;;;;;4989387;28;19952;-70
2023/12/10 01:31:37;;;;;;;1999.90;999.90;;;8.70;99.90;;;;;;4989820;28;20080;-71
2023/12/10 01:34:03;;;;;;;1999.90;999.90;;;8.70;99.90;;;;;;4997604;28;20076;-70
2023/12/10 01:36:29;;;;;;;1999.90;999.90;;;8.80;99.90;;;;;;4990550;28;20321;-70
2023/12/10 01:38:55;;;;;;;1999.90;999.90;;;8.80;99.90;;;;;;4990968;28;20038;-71
2023/12/10 01:41:23;;;;;;;1999.90;999.90;;;8.80;99.90;;;;;;4996242;28;20283;-71
2023/12/10 01:43:49;;;;;;;1999.90;999.90;;;8.80;99.90;;;;;;4999922;28;20106;-71
2023/12/10 01:46:15;;;;;;;1999.90;999.90;;;8.80;99.90;;;;;;4990425;28;20097;-71
2023/12/10 01:48:43;;;;;;;1999.90;999.90;;;8.80;99.90;;;;;;4991417;28;20109;-71
2023/12/10 01:51:09;;;;;;;1999.90;999.90;;;8.80;99.90;;;;;;4991187;28;20482;-71
2023/12/10 01:53:37;;;;;;;1999.90;999.90;;;8.80;99.90;;;;;;4991445;28;20039;-71
2023/12/10 01:56:06;;;;;;;1999.90;999.90;;;8.80;99.90;;;;;;4990386;28;20749;-71
2023/12/10 01:58:32;;;;;;;1999.90;999.90;;;8.80;99.90;;;;;;4998114;28;20091;-71
2023/12/10 02:01:00;;;;;;;1999.90;999.90;;;8.80;99.90;;;;;;4993882;28;20026;-71
2023/12/10 02:03:26;;;;;;;1999.90;999.90;;;8.80;99.90;;;;;;4998581;28;20323;-71
2023/12/10 02:05:52;;;;;;;1999.90;999.90;;;8.70;99.90;;;;;;4990745;28;20030;-71
2023/12/10 02:08:19;;;;;;;1999.90;999.90;;;8.70;99.90;;;;;;4990491;28;20035;-72
2023/12/10 02:10:45;;;;;;;;;;;8.60;99.90;;;;;;4993216;28;20105;-72
2023/12/10 02:13:11;;;;;;;1999.90;999.90;;;8.60;99.90;;;;;;4989610;28;19996;-71
2023/12/10 02:15:37;;;;;;;1999.90;999.90;;;8.50;99.90;;;;;;4990984;28;20475;-70
2023/12/10 02:18:03;;;;;;;1999.90;999.90;;;8.50;99.90;;;;;;4989767;28;20038;-70
2023/12/10 02:20:28;;;;;;;1999.90;999.90;;;8.40;99.90;;;;;;5033416;28;20428;-71
2023/12/10 02:23:21;;;;;;;1999.90;999.90;;;8.40;99.90;;;;;;4996789;28;20038;-71
2023/12/10 02:25:47;;;;;;;1999.90;999.90;;;8.40;99.90;;;;;;4997506;28;20056;-71
2023/12/10 02:28:16;;;;;;;1999.90;999.90;;;8.40;99.90;;;;;;4990536;28;20343;-71
2023/12/10 02:30:42;;;;;;;1999.90;999.90;;;8.40;99.90;;;;;;4991426;28;20023;-71
2023/12/10 02:33:07;;;;;;;1999.90;999.90;;;8.40;99.90;;;;;;4991018;28;20042;-72
2023/12/10 02:35:33;;;;;;;1999.90;999.90;;;8.40;99.90;;;;;;4993231;28;20113;-71
2023/12/10 02:37:59;;;;;;;1999.90;999.90;;;8.50;99.90;;;;;;4989639;28;20034;-71
2023/12/10 02:40:25;;;;;;;1999.90;999.90;;;8.50;99.90;;;;;;4975074;28;20037;-71
2023/12/10 02:42:50;;;;;;;1999.90;999.90;;;8.50;99.90;;;;;;4999147;28;20038;-70
2023/12/10 02:45:17;;;;;;;1999.90;999.90;;;8.50;99.90;;;;;;4975384;28;20425;-71
2023/12/10 02:47:42;;;;;;;1999.90;999.90;;;8.60;99.90;;;;;;4955814;28;20027;-71
2023/12/10 02:50:09;;;;;;;1999.90;999.90;;;8.50;99.90;;;;;;4994882;28;20856;-71
2023/12/10 02:52:38;;;;;;;1999.90;999.90;;;8.50;99.90;;;;;;4993319;28;20067;-71
2023/12/10 02:55:05;;;;;;;1999.90;999.90;;;8.50;99.90;;;;;;4993745;28;20026;-70
2023/12/10 02:57:31;;;;;;;1999.90;999.90;;;8.50;99.90;;;;;;4992109;28;20030;-71
2023/12/10 02:59:57;;;;;;;1999.90;999.90;;;8.50;99.90;;;;;;4996017;28;20046;-72
2023/12/10 03:02:23;;;;;;;1999.90;999.90;;;8.60;99.90;;;;;;4994477;28;20026;-71
2023/12/10 03:04:48;;;;;;;1999.90;999.90;;;8.60;99.90;;;;;;4977191;28;20203;-72
2023/12/10 03:07:14;;;;;;;1999.90;999.90;;;8.60;99.90;;;;;;4993105;28;20027;-71
2023/12/10 03:09:40;;;;;;;1999.90;999.90;;;8.60;99.90;;;;;;4979214;28;20087;-71
2023/12/10 03:12:06;;;;;;;1999.90;999.90;;;8.60;99.90;;;;;;5000190;28;20030;-71
2023/12/10 03:14:32;;;;;;;1999.90;999.90;;;8.60;99.90;;;;;;4981935;28;20034;-72
2023/12/10 03:16:57;;;;;;;1999.90;999.90;;;8.60;99.90;;;;;;4998864;28;20432;-71
2023/12/10 03:19:23;;;;;;;1999.90;999.90;;;8.60;99.90;;;;;;4999301;28;20036;-72
2023/12/10 03:21:49;;;;;;;1999.90;999.90;;;8.60;99.90;;;;;;4995220;28;20034;-71
2023/12/10 03:24:14;;;;;;;1999.90;999.90;;;8.60;99.90;;;;;;5000747;28;20103;-72
2023/12/10 03:26:40;;;;;;;1999.90;999.90;;;8.60;99.90;;;;;;4997649;28;20107;-71
2023/12/10 03:29:06;;;;;;;1999.90;999.90;;;8.60;99.90;;;;;;4998452;28;20084;-71
2023/12/10 03:31:32;;;;;;;1999.90;999.90;;;8.60;99.90;;;;;;4998894;28;20464;-72
2023/12/10 03:33:57;;;;;;;1999.90;999.90;;;8.60;99.90;;;;;;4992862;28;20035;-71
2023/12/10 03:36:23;;;;;;;1999.90;999.90;;;8.70;99.90;;;;;;5000150;28;20260;-72
2023/12/10 03:38:49;;;;;;;1999.90;999.90;;;8.70;99.90;;;;;;4993923;28;20314;-72
2023/12/10 03:41:15;;;;;;;1999.90;999.90;;;8.70;99.90;;;;;;5001620;28;20041;-71
2023/12/10 03:43:41;;;;;;;1999.90;999.90;;;8.70;99.90;;;;;;5001657;28;20443;-71
2023/12/10 03:46:07;;;;;;;1999.90;999.90;;;8.70;99.90;;;;;;4999685;28;20448;-71
2023/12/10 03:48:32;;;;;;;1999.90;999.90;;;8.70;99.90;;;;;;4991981;28;20351;-71
2023/12/10 03:50:58;;;;;;;1999.90;999.90;;;8.70;99.90;;;;;;4998392;28;20034;-72
2023/12/10 03:53:24;;;;;;;1999.90;999.90;;;8.70;99.90;;;;;;4975525;28;20318;-71
2023/12/10 03:55:50;;;;;;;1999.90;999.90;;;8.70;99.90;;;;;;4977416;28;20080;-71
2023/12/10 03:58:16;;;;;;;1999.90;999.90;;;8.80;99.90;;;;;;4991750;28;20030;-71
2023/12/10 04:00:41;;;;;;;1999.90;999.90;;;8.80;99.90;;;;;;4994714;28;20031;-71
2023/12/10 04:03:07;;;;;;;1999.90;999.90;;;8.70;99.90;;;;;;4994810;28;20045;-72
2023/12/10 04:05:33;;;;;;;1999.90;999.90;;;8.70;99.90;;;;;;4994817;28;20124;-72
2023/12/10 04:07:59;;;;;;;1999.90;999.90;;;8.70;99.90;;;;;;4999037;28;20023;-71
2023/12/10 04:10:25;;;;;;;1999.90;999.90;;;8.70;99.90;;;;;;4975434;28;20110;-72
2023/12/10 04:12:51;;;;;;;1999.90;999.90;;;8.70;99.90;;;;;;4995083;28;20107;-71
2023/12/10 04:15:17;;;;;;;1999.90;999.90;;;8.70;99.90;;;;;;4996878;28;20443;-71
2023/12/10 04:17:43;;;;;;;1999.90;999.90;;;8.70;99.90;;;;;;5044286;28;20078;-71
2023/12/10 04:20:09;;;;;;;1999.90;999.90;;;8.70;99.90;;;;;;4999984;28;20034;-71
2023/12/10 04:22:35;;;;;;;1999.90;999.90;;;8.80;99.90;;;;;;4995263;28;20039;-71
2023/12/10 04:25:01;;;;;;;1999.90;999.90;;;8.70;99.90;;;;;;4975514;28;20037;-72
2023/12/10 04:27:27;;;;;;;1999.90;999.90;;;8.70;99.90;;;;;;5000177;28;20032;-72
2023/12/10 04:29:53;;;;;;;1999.90;999.90;;;8.70;99.90;;;;;;4995251;28;20073;-72
2023/12/10 04:32:19;;;;;;;1999.90;999.90;;;8.70;99.90;;;;;;4992024;28;20113;-72
2023/12/10 04:34:44;;;;;;;1999.90;999.90;;;8.70;99.90;;;;;;4962060;28;20539;-71
2023/12/10 04:37:10;;;;;;;1999.90;999.90;;;8.70;99.90;;;;;;4993148;28;20113;-71
2023/12/10 04:39:36;;;;;;;1999.90;999.90;;;8.80;99.90;;;;;;4998161;28;20030;-71
2023/12/10 04:42:02;;;;;;;1999.90;999.90;;;8.80;99.90;;;;;;4992312;28;20470;-71
2023/12/10 04:44:28;;;;;;;1999.90;999.90;;;8.80;99.90;;;;;;4982382;28;20170;-71
2023/12/10 04:46:54;;;;;;;1999.90;999.90;;;8.80;99.90;;;;;;5007400;28;20049;-71
2023/12/10 04:49:20;;;;;;;1999.90;999.90;;;8.90;99.90;;;;;;5002434;28;20030;-71
2023/12/10 04:51:45;;;;;;;1999.90;999.90;;;8.90;99.90;;;;;;5008816;28;20105;-71
2023/12/10 04:54:11;;;;;;;1999.90;999.90;;;9.00;99.90;;;;;;4994135;28;20427;-72
2023/12/10 04:56:37;;;;;;;1999.90;999.90;;;9.00;99.90;;;;;;4991871;28;20018;-72
2023/12/10 04:59:02;;;;;;;1999.90;999.90;;;9.00;99.90;;;;;;4995807;28;20050;-72
2023/12/10 05:01:28;;;;;;;1999.90;999.90;;;9.10;99.90;;;;;;4996613;28;20030;-71
2023/12/10 05:03:54;;;;;;;1999.90;999.90;;;9.10;99.90;;;;;;4992864;28;20026;-72
2023/12/10 05:06:20;;;;;;;1999.90;999.90;;;9.10;99.90;;;;;;4990572;28;20022;-72
2023/12/10 05:08:46;;;;;;;1999.90;999.90;;;9.10;99.90;;;;;;4994347;28;20022;-72
2023/12/10 05:11:12;;;;;;;1999.90;999.90;;;9.10;99.90;;;;;;4993275;28;20030;-71
2023/12/10 05:13:37;;;;;;;1999.90;999.90;;;9.20;99.90;;;;;;4994718;28;20079;-72
2023/12/10 05:16:03;;;;;;;1999.90;999.90;;;9.20;99.90;;;;;;5001927;28;20034;-72
2023/12/10 05:18:29;;;;;;;1999.90;999.90;;;9.20;99.90;;;;;;4982803;28;20430;-72
2023/12/10 05:20:55;;;;;;;1999.90;999.90;;;9.30;99.90;;;;;;4997884;28;20039;-71
2023/12/10 05:23:21;;;;;;;1999.90;999.90;;;9.30;99.90;;;;;;4992115;28;20736;-71
2023/12/10 05:25:47;;;;;;;1999.90;999.90;;;9.30;99.90;;;;;;4975944;28;20145;-71
2023/12/10 05:28:13;;;;;;;1999.90;999.90;;;9.40;99.90;;;;;;4989008;28;20019;-72
2023/12/10 05:30:39;;;;;;;1999.90;999.90;;;9.40;99.90;;;;;;4993736;28;20030;-72
2023/12/10 05:33:04;;;;;;;1999.90;999.90;;;9.40;99.90;;;;;;4997331;28;20015;-71
2023/12/10 05:35:30;;;;;;;1999.90;999.90;;;9.40;99.90;;;;;;4991903;28;20033;-71
2023/12/10 05:37:56;;;;;;;1999.90;999.90;;;9.40;99.90;;;;;;4990803;28;20026;-72
2023/12/10 05:40:25;;;;;;;1999.90;999.90;;;9.40;99.90;;;;;;4997081;28;20324;-71
2023/12/10 05:42:52;;;;;;;1999.90;999.90;;;9.40;99.90;;;;;;5017558;28;20030;-71
2023/12/10 05:45:18;;;;;;;1999.90;999.90;;;9.40;99.90;;;;;;4990815;28;20425;-71
2023/12/10 05:47:43;;;;;;;1999.90;999.90;;;9.40;99.90;;;;;;4975368;28;20597;-72
2023/12/10 05:50:09;;;;;;;1999.90;999.90;;;9.40;99.90;;;;;;5001923;28;20067;-71
2023/12/10 05:52:35;;;;;;;1999.90;999.90;;;9.40;99.90;;;;;;4997550;28;20109;-72
2023/12/10 05:55:01;;;;;;;1999.90;999.90;;;9.30;99.90;;;;;;4990857;28;20038;-71
2023/12/10 05:57:27;;;;;;;1999.90;999.90;;;9.40;99.90;;;;;;4988554;28;20031;-72
2023/12/10 05:59:53;;;;;;;1999.90;999.90;;;9.40;99.90;;;;;;4991189;28;20030;-72
2023/12/10 06:02:21;;;;;;;1999.90;999.90;;;9.40;99.90;;;;;;4990648;28;20105;-71
2023/12/10 06:04:47;;;;;;;1999.90;999.90;;;9.40;99.90;;;;;;4991382;28;20022;-72
2023/12/10 06:07:12;;;;;;;1999.90;999.90;;;9.50;99.90;;;;;;4995874;28;20025;-71
2023/12/10 06:09:38;;;;;;;1999.90;999.90;;;9.50;99.90;;;;;;4991206;28;20041;-72
2023/12/10 06:12:05;;;;;;;1999.90;999.90;;;9.50;99.90;;;;;;4990916;28;20037;-71
2023/12/10 06:14:30;;;;;;;1999.90;999.90;;;9.50;99.90;;;;;;4997620;28;20022;-70
2023/12/10 06:16:56;;;;;;;1999.90;999.90;;;9.60;99.90;;;;;;4990471;28;20038;-72
2023/12/10 06:19:22;;;;;;;1999.90;999.90;;;9.50;99.90;;;;;;5000493;28;20031;-72
2023/12/10 06:21:48;;;;;;;1999.90;999.90;;;9.50;99.90;;;;;;4999562;28;20034;-71
2023/12/10 06:24:13;;;;;;;1999.90;999.90;;;9.50;99.90;;;;;;5000058;28;20034;-71
2023/12/10 06:26:39;;;;;;;1999.90;999.90;;;9.50;99.90;;;;;;5001517;28;20053;-71
2023/12/10 06:29:05;;;;;;;1999.90;999.90;;;9.50;99.90;;;;;;4983825;28;20147;-72
2023/12/10 06:31:31;;;;;;;1999.90;999.90;;;9.50;99.90;;;;;;5002523;28;20405;-72
2023/12/10 06:33:57;;;;;;;1999.90;999.90;;;9.50;99.90;;;;;;4994251;28;20034;-71
2023/12/10 06:36:23;;;;;;;1999.90;999.90;;;9.50;99.90;;;;;;4999713;28;20038;-70
2023/12/10 06:38:48;;;;;;;1999.90;999.90;;;9.50;99.90;;;;;;4993961;28;20054;-71
2023/12/10 06:41:14;;;;;;;1999.90;999.90;;;9.50;99.90;;;;;;5002025;28;20038;-72
2023/12/10 06:43:40;;;;;;;1999.90;999.90;;;9.50;99.90;;;;;;4993716;28;20034;-71
2023/12/10 06:46:06;;;;;;;1999.90;999.90;;;9.50;99.90;;;;;;4996911;28;20433;-71
2023/12/10 06:48:33;;;;;;;1999.90;999.90;;;9.60;99.90;;;;;;4994009;28;20317;-71
2023/12/10 06:51:02;;;;;;;1999.90;999.90;;;9.60;99.90;;;;;;4993353;28;20034;-71
2023/12/10 06:53:27;;;;;;;1999.90;999.90;;;9.60;99.90;;;;;;4993756;28;20232;-71
2023/12/10 06:55:53;;;;;;;1999.90;999.90;;;9.50;99.90;;;;;;4993749;28;20380;-72
2023/12/10 06:58:19;;;;;;;1999.90;999.90;;;9.60;99.90;;;;;;5009570;28;20097;-69
2023/12/10 07:00:45;;;;;;;1999.90;999.90;;;9.70;99.90;;;;;;4993589;28;20030;-71
2023/12/10 07:03:10;;;;;;;1999.90;999.90;;;9.60;99.90;;;;;;4976414;28;20352;-71
2023/12/10 07:05:36;;;;;;;1999.90;999.90;;;9.70;99.90;;;;;;4993441;28;20093;-71
2023/12/10 07:08:02;;;;;;;1999.90;999.90;;;9.70;99.90;;;;;;4993768;28;20149;-71
2023/12/10 07:10:28;;;;;;;1999.90;999.90;;;9.60;99.90;;;;;;5008691;28;20020;-71
2023/12/10 07:12:54;;;;;;;1999.90;999.90;;;9.70;99.90;;;;;;4982244;28;20053;-71
2023/12/10 07:15:20;;;;;;;1999.90;999.90;;;9.80;99.90;;;;;;4992926;28;20024;-71
2023/12/10 07:17:46;;;;;;;1999.90;999.90;;;9.80;99.90;;;;;;4996016;28;20030;-71
2023/12/10 07:20:12;;;;;;;1999.90;999.90;;;9.80;99.90;;;;;;4993812;28;20027;-71
2023/12/10 07:22:37;;;;;;;1999.90;999.90;;;9.80;99.90;;;;;;5002393;28;20479;-71
2023/12/10 07:25:06;;;;;;;1999.90;999.90;;;9.80;99.90;;;;;;4996769;28;20109;-71
2023/12/10 07:27:33;;;;;;;1999.90;999.90;;;9.70;99.90;;;;;;4994137;28;20039;-71
2023/12/10 07:29:59;;;;;;;1999.90;999.90;;;9.70;99.90;;;;;;4993950;28;20053;-72
2023/12/10 07:32:25;;;;;;;1999.90;999.90;;;9.80;99.90;;;;;;4995943;28;20083;-71
2023/12/10 07:34:51;;;;;;;1999.90;999.90;;;9.70;99.90;;;;;;4994747;28;20034;-71
2023/12/10 07:37:17;;;;;;;1999.90;999.90;;;9.70;99.90;;;;;;4995302;28;20056;-72
2023/12/10 07:39:43;;;;;;;1999.90;999.90;;;9.70;99.90;;;;;;4993066;28;20367;-71
2023/12/10 07:42:09;;;;;;;1999.90;999.90;;;9.70;99.90;;;;;;4995474;28;20068;-71
2023/12/10 07:44:35;;;;;;;1999.90;999.90;;;9.70;99.90;;;;;;4983787;28;20038;-71
2023/12/10 07:47:02;;;;;;;1999.90;999.90;;;9.70;99.90;;;;;;4993934;28;20256;-69
2023/12/10 07:49:28;;;;;;;1999.90;999.90;;;9.70;99.90;;;;;;4992993;28;20311;-71
2023/12/10 07:51:54;;;;;;;1999.90;999.90;;;9.70;99.90;;;;;;4995066;28;20037;-71
2023/12/10 07:54:20;;;;;;;1999.90;999.90;;;9.70;99.90;;;;;;4992548;28;20022;-72
2023/12/10 07:56:45;;;;;;;1999.90;999.90;;;9.70;99.90;;;;;;4995049;28;20041;-70
2023/12/10 07:59:12;;;;;;;1999.90;999.90;;;9.70;99.90;;;;;;4976143;28;20030;-71
2023/12/10 08:01:38;;;;;;;1999.90;999.90;;;9.70;99.90;;;;;;4992744;28;20026;-71
2023/12/10 08:04:04;;;;;;;1999.90;999.90;;;9.70;99.90;;;;;;4994143;28;20057;-70
2023/12/10 08:06:30;;;;;;;1999.90;999.90;;;9.70;99.90;;;;;;4990717;28;20067;-70
2023/12/10 08:08:56;;;;;;;1999.90;999.90;;;9.70;99.90;;;;;;5003771;28;20058;-71
2023/12/10 08:11:22;;;;;;;1999.90;999.90;;;9.60;99.90;;;;;;4995933;28;20018;-71
2023/12/10 08:13:48;;;;;;;1999.90;999.90;;;9.60;99.90;;;;;;4993856;28;20037;-71
2023/12/10 08:16:14;;;;;;;1999.90;999.90;;;9.60;99.90;;;;;;4992256;28;20109;-71
2023/12/10 08:18:40;;;;;;;1999.90;999.90;;;9.60;99.90;;;;;;4992106;28;20434;-71
2023/12/10 08:21:07;;;;;;;1999.90;999.90;;;9.60;99.90;;;;;;4998127;28;20044;-71
2023/12/10 08:23:33;;;;;;;1999.90;999.90;;;9.50;99.90;;;;;;5022388;28;20034;-71
2023/12/10 08:25:59;;;;;;;1999.90;999.90;;;9.60;99.90;;;;;;4991646;28;20050;-71
2023/12/10 08:28:24;;;;;;;1999.90;999.90;;;9.60;99.90;;;;;;4992428;28;20019;-72
2023/12/10 08:30:50;;;;;;;1999.90;999.90;;;9.60;99.90;;;;;;5009365;28;20469;-72
2023/12/10 08:33:16;;;;;;;1999.90;999.90;;;9.60;99.90;;;;;;4996152;28;20117;-71
2023/12/10 08:35:42;;;;;;;1999.90;999.90;;;9.60;99.90;;;;;;5000710;28;20370;-72
2023/12/10 08:38:08;;;;;;;1999.90;999.90;;;9.50;99.90;;;;;;5054642;28;20081;-71
2023/12/10 08:40:35;;;;;;;1999.90;999.90;;;9.60;99.90;;;;;;4991652;28;20045;-72
2023/12/10 08:43:01;;;;;;;1999.90;999.90;;;9.50;99.90;;;;;;5068246;28;20024;-72
2023/12/10 08:45:27;;;;;;;1999.90;999.90;;;9.60;99.90;;;;;;5028766;28;20326;-71
2023/12/10 08:47:53;;;;;;;1999.90;999.90;;;9.60;99.90;;;;;;5010660;28;20029;-72
2023/12/10 08:50:19;;;;;;;1999.90;999.90;;;9.50;99.90;;;;;;5026414;28;20028;-71
2023/12/10 08:52:45;;;;;;;1999.90;999.90;;;9.50;99.90;;;;;;4992900;28;20433;-71
2023/12/10 08:55:11;;;;;;;1999.90;999.90;;;9.50;99.90;;;;;;4987517;28;20045;-71
2023/12/10 08:57:37;;;;;;;1999.90;999.90;;;9.50;99.90;;;;;;4990084;28;20432;-71
2023/12/10 09:00:03;;;;;;;1999.90;999.90;;;9.60;99.90;;;;;;4992578;28;20041;-72
2023/12/10 09:02:29;;;;;;;1999.90;999.90;;;9.60;99.90;;;;;;4983183;28;20027;-71
2023/12/10 09:04:55;;;;;;;1999.90;999.90;;;9.60;99.90;;;;;;4990838;28;20027;-71
2023/12/10 09:07:21;;;;;;;1999.90;999.90;;;9.60;99.90;;;;;;4991482;28;20036;-70
2023/12/10 09:09:48;;;;;;;1999.90;999.90;;;9.60;99.90;;;;;;4991205;28;20152;-72
2023/12/10 09:12:14;;;;;;;1999.90;999.90;;;9.50;99.90;;;;;;4991664;28;20084;-71
2023/12/10 09:14:40;;;;;;;1999.90;999.90;;;9.50;99.90;;;;;;4991219;28;20034;-72
2023/12/10 09:17:06;;;;;;;1999.90;999.90;;;9.50;99.90;;;;;;4991945;28;20045;-71
2023/12/10 09:19:32;;;;;;;1999.90;999.90;;;9.60;99.90;;;;;;5006248;28;20065;-71
2023/12/10 09:21:57;;;;;;;1999.90;999.90;;;9.60;99.90;;;;;;4991066;28;20026;-71
2023/12/10 09:24:23;;;;;;;1999.90;999.90;;;9.60;99.90;;;;;;4994695;28;20038;-71
2023/12/10 09:26:50;;;;;;;1999.90;999.90;;;9.60;99.90;;;;;;4990376;28;20176;-71
2023/12/10 09:29:16;;;;;;;1999.90;999.90;;;9.60;99.90;;;;;;5002449;28;20101;-72
2023/12/10 09:31:42;;;;;;;1999.90;999.90;;;9.60;99.90;;;;;;5011880;28;20489;-72
2023/12/10 09:34:09;;;;;;;1999.90;999.90;;;9.50;99.90;;;;;;4990545;28;20090;-72
2023/12/10 09:36:35;;;;;;;1999.90;999.90;;;9.50;99.90;;;;;;4998343;28;20045;-72
2023/12/10 09:39:01;;;;;;;1999.90;999.90;;;9.60;99.90;;;;;;4999094;28;20030;-71
2023/12/10 09:41:27;;;;;;;1999.90;999.90;;;9.60;99.90;;;;;;5015142;28;20020;-72
2023/12/10 09:43:53;;;;;;;1999.90;999.90;;;9.60;99.90;;;;;;5038346;28;20411;-71
2023/12/10 09:46:20;;;;;;;1999.90;999.90;;;9.60;99.90;;;;;;5007212;28;20030;-72
2023/12/10 09:48:47;;;;;;;1999.90;999.90;;;9.70;99.90;;;;;;4973319;28;20050;-72
2023/12/10 09:51:13;;;;;;;;;;;9.70;99.90;;;;;;5000726;28;20025;-71
2023/12/10 09:53:40;;;;;;;1999.90;999.90;;;9.80;99.90;;;;;;4997976;28;19920;-71
2023/12/10 09:56:06;;;;;;;1999.90;999.90;;;9.80;99.90;;;;;;5013547;28;20132;-72
2023/12/10 09:58:32;;;;;;;1999.90;999.90;;;9.90;99.90;;;;;;4994670;28;20129;-72
2023/12/10 10:01:00;;;;;;;1999.90;999.90;;;9.90;99.90;;;;;;5017129;28;20492;-71
2023/12/10 10:03:26;;;;;;;1999.90;999.90;;;9.90;99.90;;;;;;4994426;28;20050;-70
2023/12/10 10:05:54;;;;;;;1999.90;999.90;;;9.90;99.90;;;;;;4992346;28;20085;-72
2023/12/10 10:08:20;;;;;;;1999.90;999.90;;;9.90;99.90;;;;;;4991742;28;20030;-70
2023/12/10 10:10:45;;;;;;;1999.90;999.90;;;10.00;99.90;;;;;;5010846;28;20298;-71
2023/12/10 10:13:11;;;;;;;1999.90;999.90;;;10.10;99.90;;;;;;4993746;28;20033;-71
2023/12/10 10:15:37;;;;;;;1999.90;999.90;;;10.10;99.90;;;;;;4994356;28;20030;-71
2023/12/10 10:18:06;;;;;;;1999.90;999.90;;;10.30;99.90;;;;;;4993901;28;20032;-71
2023/12/10 10:20:32;;;;;;;1999.90;999.90;;;10.30;99.90;;;;;;5002740;28;20027;-71
2023/12/10 10:22:58;;;;;;;1999.90;999.90;;;10.20;99.90;;;;;;4993562;28;20037;-71
2023/12/10 10:25:24;;;;;;;1999.90;999.90;;;10.30;99.90;;;;;;5000028;28;20280;-72
2023/12/10 10:27:50;;;;;;;1999.90;999.90;;;10.30;99.90;;;;;;5005774;28;20086;-71
2023/12/10 10:30:17;;;;;;;1999.90;999.90;;;10.30;99.90;;;;;;4992696;28;20131;-71
2023/12/10 10:32:44;;;;;;;1999.90;999.90;;;10.30;99.90;;;;;;4994377;28;20351;-71
2023/12/10 10:35:11;;;;;;;1999.90;999.90;;;10.30;99.90;;;;;;4993521;28;20062;-71
2023/12/10 10:37:37;;;;;;;1999.90;999.90;;;10.30;99.90;;;;;;4994660;28;20035;-70
2023/12/10 10:40:03;;;;;;;1999.90;999.90;;;10.30;99.90;;;;;;4993480;28;20042;-71
2023/12/10 10:42:29;;;;;;;1999.90;999.90;;;10.30;99.90;;;;;;4993634;28;20037;-71
2023/12/10 10:44:55;;;;;;;1999.90;999.90;;;10.20;99.90;;;;;;4996219;28;20034;-72
2023/12/10 10:47:22;;;;;;;1999.90;999.90;;;10.10;99.90;;;;;;4999747;28;20053;-70
2023/12/10 10:49:55;;;;;;;1999.90;999.90;;;10.00;99.90;;;;;;4989559;28;20019;-72
2023/12/10 10:52:24;;;;;;;1999.90;999.90;;;10.00;99.90;;;;;;4991389;28;20042;-70
2023/12/10 10:54:54;;;;;;;1999.90;999.90;;;10.00;99.90;;;;;;4978147;28;20155;-71
2023/12/10 10:57:46;;;;;;;1999.90;999.90;;;10.00;99.90;;;;;;4996342;28;20107;-71
2023/12/10 11:00:18;;;;;;;1999.90;999.90;;;10.10;99.90;;;;;;4988973;28;20046;-71
2023/12/10 11:02:52;;;;;;;1999.90;999.90;;;10.30;99.90;;;;;;4997021;28;20065;-71
2023/12/10 11:05:30;;;;;;;1999.90;999.90;;;10.40;99.90;;;;;;5002803;28;20045;-72
2023/12/10 11:07:56;;;;;;;1999.90;999.90;;;10.50;99.90;;;;;;5001099;28;20027;-71
2023/12/10 11:10:22;;;;;;;1999.90;999.90;;;10.60;99.90;;;;;;5003460;28;20049;-72
2023/12/10 11:12:49;;;;;;;1999.90;999.90;;;10.70;99.90;;;;;;5001190;28;20054;-71
2023/12/10 11:15:18;;;;;;;1999.90;999.90;;;10.60;99.90;;;;;;5009505;28;20019;-71
2023/12/10 11:18:05;;;;;;;1999.90;999.90;;;10.60;99.90;;;;;;5039405;28;20040;-71
2023/12/10 11:20:44;;;;;;;1999.90;999.90;;;10.50;99.90;;;;;;4989280;28;20022;-71
2023/12/10 11:23:15;;;;;;;1999.90;999.90;;;10.40;99.90;;;;;;4997867;28;20041;-71
2023/12/10 11:25:41;;;;;;;1999.90;999.90;;;10.40;99.90;;;;;;4992364;28;20034;-71
2023/12/10 11:28:12;;;;;;;1999.90;999.90;;;10.40;99.90;;;;;;4991878;28;20380;-71
2023/12/10 11:30:42;;;;;;;1999.90;999.90;;;10.40;99.90;;;;;;4991936;28;20026;-71
2023/12/10 11:33:10;;;;;;;1999.90;999.90;;;10.40;99.90;;;;;;4999965;28;20019;-71
2023/12/10 11:35:36;;;;;;;1999.90;999.90;;;10.40;99.90;;;;;;4993107;28;20027;-72
2023/12/10 11:38:04;;;;;;;1999.90;999.90;;;10.50;99.90;;;;;;4990681;28;20033;-71
2023/12/10 11:40:31;;;;;;;1999.90;999.90;;;10.60;99.90;;;;;;5004273;28;20030;-71
2023/12/10 11:43:04;;;;;;;1999.90;999.90;;;10.60;99.90;;;;;;4992675;28;20022;-72
2023/12/10 11:45:30;;;;;;;1999.90;999.90;;;10.70;99.90;;;;;;5001525;28;20161;-72
2023/12/10 11:47:56;;;;;;;1999.90;999.90;;;10.60;99.90;;;;;;4992508;28;20026;-71
2023/12/10 11:50:22;;;;;;;1999.90;999.90;;;10.60;99.90;;;;;;4965452;28;20034;-71
2023/12/10 11:52:48;;;;;;;1999.90;999.90;;;10.70;99.90;;;;;;4992196;28;20321;-72
2023/12/10 11:55:14;;;;;;;1999.90;999.90;;;10.70;99.90;;;;;;4992491;28;20065;-71
2023/12/10 11:57:44;;;;;;;1999.90;999.90;;;10.70;99.90;;;;;;5016407;28;20039;-71
2023/12/10 12:00:12;;;;;;;1999.90;999.90;;;10.50;99.90;;;;;;4995204;28;20026;-71
2023/12/10 12:02:47;;;;;;;1999.90;999.90;;;10.30;99.90;;;;;;5000362;28;20049;-71
2023/12/10 12:05:15;;;;;;;1999.90;999.90;;;10.20;99.90;;;;;;4992180;28;20030;-70